Time;durP1;ratioP1;P1;durP2;ratioP2;P2;SDS_P1;SDS_P2;PMS_P1;PMS_P2;Temp;Humidity;BMP_temperature;BMP_pressure;BME280_temperature;BME280_humidity;BME280_pressure;Samples;Min_cycle;Max_cycle;Signal;HPM_P1;HPM_P2
2023/01/23 00:01:16;;;;;;;3.93;3.73;;;18.50;35.20;;;;;;4953942;28;21387;-92
2023/01/23 00:03:42;;;;;;;3.70;3.50;;;18.50;35.20;;;;;;4955182;28;20217;-92
2023/01/23 00:06:12;;;;;;;4.10;3.90;;;18.50;35.20;;;;;;4954359;28;20422;-93
2023/01/23 00:08:39;;;;;;;3.80;3.60;;;18.50;35.20;;;;;;4943058;28;20222;-92
2023/01/23 00:11:13;;;;;;;4.37;4.17;;;18.50;36.00;;;;;;4949732;28;20433;-92
2023/01/23 00:13:39;;;;;;;4.57;4.27;;;18.50;35.30;;;;;;4937748;28;20473;-91
2023/01/23 00:16:11;;;;;;;4.07;3.83;;;18.50;35.20;;;;;;4956982;28;21250;-92
2023/01/23 00:18:37;;;;;;;4.67;4.37;;;18.50;35.20;;;;;;4938049;28;20423;-92
2023/01/23 00:21:09;;;;;;;3.47;3.30;;;18.50;35.20;;;;;;4925170;28;20468;-91
2023/01/23 00:23:35;;;;;;;4.33;4.13;;;18.50;35.20;;;;;;4930475;28;20296;-91
2023/01/23 00:26:02;;;;;;;4.23;4.00;;;18.50;35.30;;;;;;4938520;28;20430;-91
2023/01/23 00:28:28;;;;;;;4.37;4.17;;;18.50;35.20;;;;;;4949965;28;20234;-91
2023/01/23 00:31:01;;;;;;;4.43;4.23;;;18.50;35.30;;;;;;4957490;28;20448;-91
2023/01/23 00:33:27;;;;;;;4.03;3.83;;;18.50;35.20;;;;;;4958286;28;20239;-92
2023/01/23 00:35:53;;;;;;;3.47;3.27;;;18.50;35.20;;;;;;4959324;28;20453;-92
2023/01/23 00:38:19;;;;;;;4.00;3.70;;;18.50;35.30;;;;;;4953265;28;20268;-91
2023/01/23 00:40:46;;;;;;;3.80;3.60;;;18.50;35.20;;;;;;4959482;28;20470;-92
2023/01/23 00:43:11;;;;;;;4.23;4.03;;;18.50;35.20;;;;;;4957522;28;20225;-92
2023/01/23 00:45:37;;;;;;;4.00;3.80;;;18.50;35.20;;;;;;4958968;28;20478;-92
2023/01/23 00:48:03;;;;;;;4.70;4.40;;;18.50;35.30;;;;;;4959627;28;20567;-91
2023/01/23 00:50:28;;;;;;;3.67;3.47;;;18.50;35.30;;;;;;4957482;28;20252;-91
2023/01/23 00:52:54;;;;;;;6.07;4.57;;;18.50;35.30;;;;;;4957387;28;20364;-92
2023/01/23 00:55:19;;;;;;;4.33;4.03;;;18.50;35.30;;;;;;4957794;28;20650;-91
2023/01/23 00:57:45;;;;;;;3.60;3.40;;;18.50;35.30;;;;;;4959937;28;20229;-93
2023/01/23 01:00:11;;;;;;;3.70;3.50;;;18.50;35.30;;;;;;4956303;28;20302;-91
2023/01/23 01:02:36;;;;;;;3.97;3.67;;;18.50;35.30;;;;;;4957008;28;21725;-92
2023/01/23 01:05:02;;;;;;;4.00;3.80;;;18.50;35.30;;;;;;4951455;28;20225;-91
2023/01/23 01:07:28;;;;;;;4.20;4.00;;;18.50;35.30;;;;;;4957575;28;20229;-91
2023/01/23 01:09:53;;;;;;;3.93;3.73;;;18.50;35.30;;;;;;4948354;28;20233;-91
2023/01/23 01:12:19;;;;;;;3.40;3.20;;;18.50;35.30;;;;;;4939245;28;20231;-91
2023/01/23 01:14:45;;;;;;;3.90;3.70;;;18.50;35.20;;;;;;4943059;28;20228;-92
2023/01/23 01:17:10;;;;;;;4.07;3.87;;;18.50;35.30;;;;;;4950542;28;20224;-92
2023/01/23 01:19:36;;;;;;;3.73;3.53;;;18.50;35.30;;;;;;4956207;28;20237;-91
2023/01/23 01:22:02;;;;;;;3.70;3.50;;;18.50;35.30;;;;;;4953826;28;20216;-92
2023/01/23 01:24:27;;;;;;;3.83;3.63;;;18.50;35.20;;;;;;4955534;28;20311;-92
2023/01/23 01:26:53;;;;;;;5.50;4.03;;;18.50;35.30;;;;;;4953047;28;20213;-91
2023/01/23 01:29:18;;;;;;;4.00;3.70;;;18.50;35.30;;;;;;4956235;28;20321;-92
2023/01/23 01:31:44;;;;;;;3.87;3.67;;;18.50;35.30;;;;;;4952579;28;20575;-90
2023/01/23 01:34:09;;;;;;;4.00;3.70;;;18.50;35.30;;;;;;4955390;28;20263;-91
2023/01/23 01:36:35;;;;;;;3.70;3.50;;;18.50;35.20;;;;;;4953989;28;20249;-91
2023/01/23 01:39:00;;;;;;;3.63;3.43;;;18.50;35.20;;;;;;4954042;28;20224;-91
2023/01/23 01:41:26;;;;;;;3.77;3.57;;;18.50;35.20;;;;;;4955429;28;20216;-93
2023/01/23 01:43:55;;;;;;;3.67;3.47;;;18.50;35.30;;;;;;4941700;28;20249;-92
2023/01/23 01:46:24;;;;;;;4.07;3.87;;;18.50;35.20;;;;;;4955302;28;20229;-93
2023/01/23 01:49:22;;;;;;;4.33;4.03;;;18.50;35.30;;;;;;4959079;28;20961;-93
2023/01/23 01:52:03;;;;;;;3.40;3.20;;;18.50;35.20;;;;;;4951157;28;20485;-93
2023/01/23 01:54:35;;;;;;;3.37;3.17;;;18.50;35.30;;;;;;4956213;28;20455;-92
2023/01/23 01:57:14;;;;;;;4.13;3.83;;;18.50;35.30;;;;;;4942625;28;20437;-92
2023/01/23 01:59:47;;;;;;;3.60;3.40;;;18.50;35.30;;;;;;4952811;28;20442;-93
2023/01/23 02:02:24;;;;;;;3.30;3.10;;;18.50;35.30;;;;;;4958268;28;20496;-92
2023/01/23 02:04:54;;;;;;;3.83;3.60;;;18.50;35.30;;;;;;4956227;28;20441;-93
2023/01/23 02:07:41;;;;;;;4.00;3.80;;;18.50;35.30;;;;;;4955453;28;20466;-91
2023/01/23 02:10:07;;;;;;;3.60;3.40;;;18.50;35.30;;;;;;4929764;28;20908;-91
2023/01/23 02:12:34;;;;;;;3.93;3.73;;;18.50;35.30;;;;;;4956238;28;21013;-92
2023/01/23 02:15:01;;;;;;;3.73;3.53;;;18.50;35.30;;;;;;4958708;28;20477;-92
2023/01/23 02:17:29;;;;;;;3.43;3.23;;;18.50;35.30;;;;;;4957367;28;20470;-91
2023/01/23 02:20:21;;;;;;;3.70;3.50;;;18.50;35.30;;;;;;4952867;28;20429;-91
2023/01/23 02:23:11;;;;;;;3.73;3.53;;;18.50;35.30;;;;;;4958031;28;21331;-91
2023/01/23 02:25:50;;;;;;;3.50;3.30;;;18.50;35.30;;;;;;4951510;28;20440;-92
2023/01/23 02:28:16;;;;;;;3.43;3.23;;;18.50;35.40;;;;;;4956737;28;20452;-91
2023/01/23 02:30:45;;;;;;;3.10;2.90;;;18.50;35.40;;;;;;4954536;28;20441;-93
2023/01/23 02:33:20;;;;;;;4.07;3.77;;;18.50;35.40;;;;;;4934487;28;20450;-93
2023/01/23 02:35:46;;;;;;;3.80;3.60;;;18.50;35.30;;;;;;4946982;28;20838;-93
2023/01/23 02:38:13;;;;;;;3.87;3.63;;;18.50;35.40;;;;;;4950685;28;20426;-91
2023/01/23 02:40:41;;;;;;;3.67;3.47;;;18.50;35.40;;;;;;4954543;28;20477;-92
2023/01/23 02:43:11;;;;;;;3.50;3.30;;;18.50;35.30;;;;;;4945011;28;20432;-93
2023/01/23 02:45:37;;;;;;;3.63;3.43;;;18.50;35.40;;;;;;4956949;28;20458;-92
2023/01/23 02:48:04;;;;;;;3.37;3.17;;;18.50;35.40;;;;;;4958480;28;20442;-92
2023/01/23 02:50:31;;;;;;;3.23;3.03;;;18.50;35.40;;;;;;4947027;28;20482;-93
2023/01/23 02:52:57;;;;;;;3.60;3.40;;;18.50;35.40;;;;;;4946349;28;20431;-92
2023/01/23 02:55:25;;;;;;;3.60;3.40;;;18.50;35.40;;;;;;4934420;28;20526;-93
2023/01/23 02:57:51;;;;;;;3.40;3.20;;;18.50;35.40;;;;;;4938565;28;21024;-93
2023/01/23 03:00:21;;;;;;;3.70;3.50;;;18.50;35.30;;;;;;4938245;28;20472;-93
2023/01/23 03:02:50;;;;;;;3.70;3.50;;;18.50;35.30;;;;;;4949705;28;20448;-92
2023/01/23 03:05:16;;;;;;;3.27;3.07;;;18.50;35.30;;;;;;4951153;28;20413;-92
2023/01/23 03:07:42;;;;;;;3.43;3.23;;;18.50;35.40;;;;;;4955638;28;20437;-93
2023/01/23 03:10:09;;;;;;;3.37;3.17;;;18.50;35.30;;;;;;4953001;28;20603;-91
2023/01/23 03:12:41;;;;;;;3.30;3.10;;;18.50;35.40;;;;;;4954383;28;20225;-92
2023/01/23 03:15:07;;;;;;;3.30;3.10;;;18.50;35.40;;;;;;4955918;28;20565;-92
2023/01/23 03:17:32;;;;;;;3.43;3.23;;;18.50;35.40;;;;;;4958143;28;20571;-93
2023/01/23 03:19:58;;;;;;;3.33;3.13;;;18.50;35.40;;;;;;4938860;28;20799;-93
2023/01/23 03:22:25;;;;;;;3.47;3.30;;;18.50;35.40;;;;;;4941081;28;20220;-92
2023/01/23 03:24:50;;;;;;;3.50;3.30;;;18.50;35.40;;;;;;4958951;28;20714;-93
2023/01/23 03:27:16;;;;;;;2.93;2.73;;;18.50;35.40;;;;;;4958878;28;20812;-93
2023/01/23 03:32:25;;;;;;;3.13;2.93;;;18.50;35.40;;;;;;4953901;28;20224;-92
2023/01/23 03:34:51;;;;;;;3.53;3.33;;;18.50;35.40;;;;;;4961564;28;20449;-93
2023/01/23 03:37:18;;;;;;;2.80;2.70;;;18.50;35.40;;;;;;4941070;28;20274;-93
2023/01/23 03:42:28;;;;;;;2.83;2.63;;;18.50;35.40;;;;;;4949928;28;20516;-92
2023/01/23 03:44:54;;;;;;;3.50;3.30;;;18.50;35.40;;;;;;4943196;28;21453;-91
2023/01/23 03:47:19;;;;;;;3.37;3.17;;;18.50;35.40;;;;;;4943917;28;20233;-91
2023/01/23 03:49:45;;;;;;;3.37;3.17;;;18.50;35.40;;;;;;4949145;28;20228;-90
2023/01/23 03:52:10;;;;;;;3.00;2.80;;;18.50;35.40;;;;;;4962862;28;20224;-92
2023/01/23 03:54:36;;;;;;;3.20;3.10;;;18.50;35.40;;;;;;4960590;28;20613;-92
2023/01/23 03:57:02;;;;;;;3.60;3.40;;;18.50;35.40;;;;;;4958281;28;20878;-92
2023/01/23 03:59:27;;;;;;;3.00;2.80;;;18.50;35.40;;;;;;4960909;28;20750;-91
2023/01/23 04:01:53;;;;;;;3.37;3.17;;;18.50;35.40;;;;;;4960014;28;20414;-92
2023/01/23 04:04:18;;;;;;;3.33;3.13;;;18.50;35.40;;;;;;4940675;28;20217;-92
2023/01/23 04:06:44;;;;;;;3.60;3.40;;;18.50;35.30;;;;;;4949538;28;20629;-91
2023/01/23 04:09:10;;;;;;;3.60;3.40;;;18.50;35.40;;;;;;4950767;28;20300;-91
2023/01/23 04:11:36;;;;;;;3.30;3.10;;;18.50;35.40;;;;;;4945155;28;20229;-93
2023/01/23 04:14:01;;;;;;;2.80;2.60;;;18.50;35.30;;;;;;4957551;28;21529;-92
2023/01/23 04:16:27;;;;;;;2.97;2.77;;;18.50;35.30;;;;;;4957619;28;20711;-93
2023/01/23 04:18:53;;;;;;;3.60;3.40;;;18.50;35.30;;;;;;4955700;28;20704;-90
2023/01/23 04:21:19;;;;;;;3.20;3.00;;;18.50;35.40;;;;;;4957129;28;20217;-92
2023/01/23 04:23:45;;;;;;;3.30;3.10;;;18.50;35.40;;;;;;4959867;28;20236;-92
2023/01/23 04:26:11;;;;;;;2.70;2.57;;;18.50;35.30;;;;;;4952382;28;20233;-90
2023/01/23 04:28:36;;;;;;;2.97;2.77;;;18.50;35.50;;;;;;4960415;28;21046;-92
2023/01/23 04:31:02;;;;;;;3.23;2.93;;;18.50;35.30;;;;;;4954534;28;20562;-92
2023/01/23 04:33:28;;;;;;;3.13;2.83;;;18.50;35.30;;;;;;4958062;28;20291;-92
2023/01/23 04:35:57;;;;;;;2.93;2.83;;;18.50;35.30;;;;;;4957748;28;20240;-90
2023/01/23 04:38:24;;;;;;;3.30;3.10;;;18.50;35.30;;;;;;4962302;28;20672;-92
2023/01/23 04:40:50;;;;;;;2.93;2.73;;;18.50;35.40;;;;;;4941459;28;20456;-92
2023/01/23 04:43:16;;;;;;;3.87;3.67;;;18.50;35.30;;;;;;4936873;28;20427;-91
2023/01/23 04:45:42;;;;;;;3.27;3.07;;;18.50;35.30;;;;;;4933690;28;20484;-92
2023/01/23 04:48:09;;;;;;;3.33;3.13;;;18.50;35.30;;;;;;4925873;28;21065;-93
2023/01/23 04:50:34;;;;;;;2.50;2.40;;;18.50;35.30;;;;;;4949367;28;20450;-91
2023/01/23 04:53:01;;;;;;;3.67;3.47;;;18.50;35.30;;;;;;4933603;28;21216;-93
2023/01/23 04:55:27;;;;;;;3.23;3.03;;;18.50;35.30;;;;;;4946588;28;20309;-92
2023/01/23 04:57:53;;;;;;;2.77;2.67;;;18.50;35.30;;;;;;4961696;28;20450;-92
2023/01/23 05:00:20;;;;;;;3.20;2.90;;;18.50;35.30;;;;;;4938131;28;20217;-90
2023/01/23 05:02:47;;;;;;;3.20;3.00;;;18.50;35.30;;;;;;4954172;28;20459;-90
2023/01/23 05:05:12;;;;;;;2.77;2.63;;;18.50;35.30;;;;;;4955117;28;20572;-92
2023/01/23 05:07:38;;;;;;;3.07;2.87;;;18.50;35.30;;;;;;4941672;28;20854;-92
2023/01/23 05:10:05;;;;;;;2.90;2.80;;;18.60;35.30;;;;;;4957561;28;20221;-90
2023/01/23 05:12:31;;;;;;;3.00;2.80;;;18.60;35.20;;;;;;4937464;28;20818;-92
2023/01/23 05:14:56;;;;;;;3.23;3.03;;;18.60;35.20;;;;;;4957095;28;20474;-92
2023/01/23 05:17:22;;;;;;;2.83;2.73;;;18.60;35.10;;;;;;4959894;28;20232;-91
2023/01/23 05:19:48;;;;;;;2.93;2.83;;;18.60;35.10;;;;;;4959886;28;20235;-92
2023/01/23 05:22:13;;;;;;;3.10;2.90;;;18.60;35.10;;;;;;4956020;28;21978;-93
2023/01/23 05:24:39;;;;;;;3.10;2.90;;;18.70;35.20;;;;;;4954219;28;20450;-91
2023/01/23 05:27:04;;;;;;;2.67;2.57;;;18.70;35.20;;;;;;4958302;28;20227;-92
2023/01/23 05:29:30;;;;;;;3.50;3.37;;;18.70;35.10;;;;;;4956309;28;20252;-93
2023/01/23 05:31:56;;;;;;;3.60;3.40;;;18.70;35.20;;;;;;4935138;28;20673;-90
2023/01/23 05:34:21;;;;;;;3.83;3.63;;;18.70;35.10;;;;;;4949248;28;20221;-92
2023/01/23 05:36:47;;;;;;;3.23;3.03;;;18.70;35.10;;;;;;4934211;28;20228;-88
2023/01/23 05:39:12;;;;;;;3.07;2.87;;;18.70;35.10;;;;;;4951551;28;20220;-89
2023/01/23 05:41:38;;;;;;;2.80;2.70;;;18.70;35.10;;;;;;4950073;28;20243;-90
2023/01/23 05:44:04;;;;;;;3.00;2.80;;;18.70;35.10;;;;;;4956047;28;20231;-88
2023/01/23 05:46:29;;;;;;;3.43;3.23;;;18.70;35.20;;;;;;4952469;28;20236;-89
2023/01/23 05:48:55;;;;;;;3.50;3.30;;;18.70;35.20;;;;;;4934584;28;21376;-89
2023/01/23 05:51:22;;;;;;;3.00;2.87;;;18.60;35.10;;;;;;4931917;28;20253;-89
2023/01/23 05:53:47;;;;;;;3.03;2.90;;;18.60;35.10;;;;;;4937428;28;20230;-88
2023/01/23 05:56:13;;;;;;;2.77;2.57;;;18.70;35.30;;;;;;4933885;28;21013;-88
2023/01/23 05:58:39;;;;;;;2.87;2.77;;;18.60;35.20;;;;;;4958202;28;20227;-88
2023/01/23 06:01:05;;;;;;;3.03;2.83;;;18.60;35.20;;;;;;4958264;28;20248;-88
2023/01/23 06:03:30;;;;;;;3.00;2.80;;;18.70;35.30;;;;;;4952522;28;20303;-89
2023/01/23 06:05:56;;;;;;;3.17;2.97;;;18.60;35.20;;;;;;4955176;28;20221;-90
2023/01/23 06:08:21;;;;;;;3.00;2.80;;;18.60;35.20;;;;;;4953937;28;20220;-91
2023/01/23 06:10:47;;;;;;;3.60;3.40;;;18.60;35.20;;;;;;4953819;28;20320;-91
2023/01/23 06:13:13;;;;;;;2.70;2.60;;;18.60;35.20;;;;;;4955781;28;20300;-90
2023/01/23 06:15:38;;;;;;;3.40;2.80;;;18.60;35.20;;;;;;4949434;28;20674;-90
2023/01/23 06:18:04;;;;;;;3.30;3.10;;;18.60;35.20;;;;;;4955933;28;20221;-90
2023/01/23 06:20:30;;;;;;;3.57;3.37;;;18.60;35.20;;;;;;4940839;28;20744;-89
2023/01/23 06:22:56;;;;;;;2.97;2.77;;;18.70;35.30;;;;;;4945036;28;20229;-90
2023/01/23 06:25:22;;;;;;;3.10;2.93;;;18.70;35.30;;;;;;4955167;28;20224;-86
2023/01/23 06:27:47;;;;;;;3.90;2.97;;;18.70;35.30;;;;;;4957103;28;20948;-88
2023/01/23 06:30:13;;;;;;;3.50;3.30;;;18.60;35.20;;;;;;4954982;28;20847;-87
2023/01/23 06:32:39;;;;;;;3.67;3.37;;;18.70;35.30;;;;;;4954776;28;20231;-88
2023/01/23 06:35:05;;;;;;;3.67;3.47;;;18.70;35.20;;;;;;4953460;28;20930;-87
2023/01/23 06:37:31;;;;;;;3.23;3.03;;;18.70;35.30;;;;;;4955058;28;20577;-88
2023/01/23 06:39:56;;;;;;;3.03;2.83;;;18.70;35.40;;;;;;4957830;28;20925;-87
2023/01/23 06:42:22;;;;;;;2.87;2.67;;;18.70;35.30;;;;;;4959035;28;20221;-87
2023/01/23 06:44:47;;;;;;;2.90;2.70;;;18.70;35.30;;;;;;4961421;28;20228;-87
2023/01/23 06:47:14;;;;;;;2.83;2.63;;;18.70;35.40;;;;;;4953863;28;22377;-87
2023/01/23 06:49:40;;;;;;;2.83;2.73;;;18.70;35.50;;;;;;4952118;28;20224;-86
2023/01/23 06:52:05;;;;;;;3.10;2.90;;;18.60;35.30;;;;;;4938090;28;20513;-85
2023/01/23 06:54:31;;;;;;;2.63;2.53;;;18.70;35.40;;;;;;4936285;28;20264;-86
2023/01/23 06:56:56;;;;;;;3.13;3.03;;;18.60;35.30;;;;;;4955923;28;20232;-87
2023/01/23 06:59:22;;;;;;;3.20;3.07;;;18.60;35.40;;;;;;4957159;28;20252;-86
2023/01/23 07:01:47;;;;;;;3.40;3.20;;;18.70;35.50;;;;;;4954981;28;20232;-85
2023/01/23 07:04:13;;;;;;;2.80;2.63;;;18.60;35.40;;;;;;4953838;28;20686;-85
2023/01/23 07:06:38;;;;;;;2.70;2.60;;;18.60;35.40;;;;;;4954791;28;20236;-85
2023/01/23 07:09:04;;;;;;;2.97;2.77;;;18.60;35.30;;;;;;4960498;28;20225;-85
2023/01/23 07:11:30;;;;;;;3.30;3.10;;;18.60;35.30;;;;;;4957259;28;20248;-86
2023/01/23 07:13:55;;;;;;;2.87;2.77;;;18.60;35.30;;;;;;4958090;28;20252;-85
2023/01/23 07:16:21;;;;;;;3.00;2.80;;;18.60;35.30;;;;;;4957628;28;20594;-84
2023/01/23 07:18:47;;;;;;;2.80;2.60;;;18.60;35.40;;;;;;4956627;28;21151;-84
2023/01/23 07:21:12;;;;;;;3.20;3.00;;;18.60;35.30;;;;;;4954045;28;20467;-84
2023/01/23 07:23:38;;;;;;;3.27;3.07;;;18.60;36.20;;;;;;4936872;28;20226;-83
2023/01/23 07:26:08;;;;;;;3.43;3.23;;;18.60;35.40;;;;;;4954043;28;20239;-84
2023/01/23 07:28:35;;;;;;;2.70;2.60;;;18.60;35.30;;;;;;4940187;28;20220;-84
2023/01/23 07:31:01;;;;;;;3.70;3.50;;;18.60;35.40;;;;;;4952787;28;20448;-84
2023/01/23 07:33:26;;;;;;;2.80;2.70;;;18.60;35.30;;;;;;4954676;28;20910;-82
2023/01/23 07:35:52;;;;;;;3.00;2.80;;;18.60;36.20;;;;;;4958825;28;20311;-82
2023/01/23 07:38:18;;;;;;;2.67;2.50;;;18.60;35.40;;;;;;4960273;28;20236;-83
2023/01/23 07:40:44;;;;;;;2.77;2.57;;;18.60;35.30;;;;;;4938506;28;22071;-83
2023/01/23 07:43:11;;;;;;;2.80;2.70;;;18.60;35.30;;;;;;4959029;28;20213;-83
2023/01/23 07:45:37;;;;;;;2.83;2.73;;;18.60;35.30;;;;;;4939180;28;20852;-84
2023/01/23 07:48:03;;;;;;;3.17;2.70;;;18.60;35.30;;;;;;4939212;28;20528;-83
2023/01/23 07:50:29;;;;;;;3.10;2.90;;;18.60;35.30;;;;;;4952930;28;20241;-84
2023/01/23 07:52:54;;;;;;;2.90;2.70;;;18.60;35.30;;;;;;4956293;28;20445;-84
2023/01/23 07:55:20;;;;;;;3.00;2.80;;;18.60;35.30;;;;;;4953457;28;20275;-85
2023/01/23 07:57:46;;;;;;;2.77;2.57;;;18.60;35.30;;;;;;4958694;28;21852;-83
2023/01/23 08:00:12;;;;;;;2.63;2.53;;;18.60;35.40;;;;;;4954731;28;20299;-83
2023/01/23 08:02:37;;;;;;;2.43;2.33;;;18.60;35.40;;;;;;4952923;28;20947;-84
2023/01/23 08:05:03;;;;;;;2.67;2.53;;;18.60;35.40;;;;;;4957737;28;20271;-84
2023/01/23 08:07:29;;;;;;;2.67;2.47;;;18.60;36.20;;;;;;4956599;28;20221;-87
2023/01/23 08:09:54;;;;;;;2.70;2.60;;;18.60;35.50;;;;;;4954739;28;20224;-85
2023/01/23 08:12:20;;;;;;;2.80;2.60;;;18.60;35.50;;;;;;4961154;28;20216;-85
2023/01/23 08:14:46;;;;;;;2.57;2.37;;;18.60;35.40;;;;;;4958610;28;20216;-85
2023/01/23 08:17:12;;;;;;;2.73;2.63;;;18.60;35.40;;;;;;4959224;28;20283;-85
2023/01/23 08:19:38;;;;;;;2.90;2.70;;;18.60;35.40;;;;;;4956318;28;21062;-85
2023/01/23 08:22:03;;;;;;;3.33;3.13;;;18.60;35.40;;;;;;4949084;28;20237;-86
2023/01/23 08:24:29;;;;;;;2.67;2.57;;;18.60;35.40;;;;;;4952440;28;20235;-85
2023/01/23 08:26:54;;;;;;;2.80;2.70;;;18.60;35.40;;;;;;4956896;28;20233;-84
2023/01/23 08:29:20;;;;;;;2.63;2.53;;;18.60;35.40;;;;;;4959104;28;20273;-85
2023/01/23 08:31:45;;;;;;;3.17;2.97;;;18.60;35.50;;;;;;4961336;28;20229;-85
2023/01/23 08:34:11;;;;;;;2.90;2.70;;;18.60;35.50;;;;;;4946650;28;20218;-85
2023/01/23 08:36:36;;;;;;;3.20;3.10;;;18.60;35.50;;;;;;4955600;28;20268;-85
2023/01/23 08:39:03;;;;;;;2.83;2.63;;;18.60;35.50;;;;;;4940878;28;21079;-85
2023/01/23 08:41:28;;;;;;;2.50;2.40;;;18.60;35.50;;;;;;4957624;28;20234;-85
2023/01/23 08:43:56;;;;;;;2.83;2.73;;;18.60;35.50;;;;;;4955970;28;20840;-85
2023/01/23 08:46:21;;;;;;;2.90;2.70;;;18.60;35.50;;;;;;4946544;28;20226;-85
2023/01/23 08:48:47;;;;;;;3.00;2.80;;;18.50;35.50;;;;;;4949215;28;20458;-85
2023/01/23 08:51:13;;;;;;;2.93;2.73;;;18.60;35.50;;;;;;4944881;28;20237;-86
2023/01/23 08:53:39;;;;;;;2.97;2.77;;;18.60;35.50;;;;;;4959848;28;20228;-86
2023/01/23 08:56:09;;;;;;;3.23;3.03;;;18.50;35.40;;;;;;4927278;28;21150;-85
2023/01/23 08:58:34;;;;;;;2.40;2.30;;;18.60;35.50;;;;;;4959090;28;20237;-85
2023/01/23 09:01:00;;;;;;;3.10;2.90;;;18.60;35.60;;;;;;4958968;28;20471;-85
2023/01/23 09:03:26;;;;;;;3.03;2.83;;;18.50;35.40;;;;;;4961884;28;20217;-85
2023/01/23 09:05:52;;;;;;;2.87;2.67;;;18.50;35.40;;;;;;4941195;28;20229;-85
2023/01/23 09:08:17;;;;;;;2.97;2.87;;;18.50;35.50;;;;;;4961094;28;20231;-84
2023/01/23 09:10:43;;;;;;;2.60;2.40;;;18.60;35.50;;;;;;4959639;28;20780;-86
2023/01/23 09:13:09;;;;;;;2.67;2.57;;;18.50;35.50;;;;;;4960683;28;20240;-86
2023/01/23 09:15:38;;;;;;;2.57;2.37;;;18.50;35.40;;;;;;4939762;28;20247;-85
2023/01/23 09:18:03;;;;;;;2.80;2.60;;;18.50;35.50;;;;;;4958927;28;21031;-85
2023/01/23 09:20:29;;;;;;;2.40;2.30;;;18.60;35.50;;;;;;4957064;28;20475;-86
2023/01/23 09:22:54;;;;;;;2.50;2.40;;;18.50;35.50;;;;;;4957529;28;20233;-85
2023/01/23 09:25:20;;;;;;;2.63;2.43;;;18.50;35.40;;;;;;4959839;28;20275;-85
2023/01/23 09:27:46;;;;;;;2.50;2.40;;;18.50;35.40;;;;;;4960977;28;20232;-85
2023/01/23 09:30:12;;;;;;;2.63;2.53;;;18.50;35.40;;;;;;4954041;28;23112;-85
2023/01/23 09:32:38;;;;;;;2.60;2.50;;;18.50;35.50;;;;;;4955635;28;20640;-85
2023/01/23 09:35:04;;;;;;;2.70;2.50;;;18.50;36.30;;;;;;4959880;28;20481;-85
2023/01/23 09:37:58;;;;;;;2.80;2.70;;;18.50;35.40;;;;;;4956907;28;20328;-84
2023/01/23 09:40:18;;;;;;;2.20;2.10;;;18.50;35.50;;;;;;4957169;28;20441;-84
2023/01/23 09:42:45;;;;;;;2.73;2.60;;;18.50;35.40;;;;;;4958997;28;20433;-84
2023/01/23 09:45:15;;;;;;;3.30;3.10;;;18.50;35.40;;;;;;4957653;28;20525;-84
2023/01/23 09:47:50;;;;;;;2.70;2.60;;;18.50;35.50;;;;;;4956535;28;20436;-84
2023/01/23 09:51:00;;;;;;;2.37;2.27;;;18.50;35.40;;;;;;4942451;28;20448;-85
2023/01/23 09:53:34;;;;;;;2.43;2.23;;;18.50;35.40;;;;;;4907470;28;20455;-85
2023/01/23 09:56:04;;;;;;;2.40;2.30;;;18.50;35.40;;;;;;4934877;28;20971;-85
2023/01/23 09:58:38;;;;;;;2.50;2.40;;;18.50;35.40;;;;;;4939263;28;20486;-84
2023/01/23 10:01:03;;;;;;;2.80;2.60;;;18.60;35.50;;;;;;4936470;28;20802;-85
2023/01/23 10:03:31;;;;;;;2.80;2.60;;;18.50;35.40;;;;;;4937100;28;20486;-84
2023/01/23 10:06:23;;;;;;;2.97;2.80;;;18.50;35.40;;;;;;4945408;28;20539;-86
2023/01/23 10:09:25;;;;;;;2.50;2.30;;;18.60;35.50;;;;;;4961753;28;20458;-85
2023/01/23 10:11:51;;;;;;;2.43;2.33;;;18.50;35.40;;;;;;4949378;28;20505;-85
2023/01/23 10:14:26;;;;;;;2.53;2.43;;;18.50;35.50;;;;;;4956687;28;20700;-85
2023/01/23 10:17:26;;;;;;;2.70;2.60;;;18.50;35.40;;;;;;4947932;28;20255;-85
2023/01/23 10:20:28;;;;;;;2.73;2.53;;;18.50;35.50;;;;;;4933661;28;20461;-86
2023/01/23 10:23:13;;;;;;;2.33;2.23;;;18.50;35.50;;;;;;4944163;28;20467;-87
2023/01/23 10:25:40;;;;;;;2.47;2.37;;;18.50;35.40;;;;;;4937898;28;20489;-86
2023/01/23 10:28:39;;;;;;;2.57;2.37;;;18.50;35.50;;;;;;4949373;28;20481;-85
2023/01/23 10:31:11;;;;;;;2.93;2.73;;;18.50;35.50;;;;;;4911505;28;20442;-87
2023/01/23 10:33:57;;;;;;;2.90;2.70;;;18.50;35.50;;;;;;4959836;28;20426;-85
2023/01/23 10:36:31;;;;;;;2.60;2.50;;;18.50;35.40;;;;;;4938764;28;22353;-87
2023/01/23 10:39:09;;;;;;;2.40;2.30;;;18.50;35.50;;;;;;4940302;28;20967;-86
2023/01/23 10:41:34;;;;;;;2.73;2.57;;;18.50;35.50;;;;;;4955725;28;20470;-87
2023/01/23 10:44:00;;;;;;;2.93;2.73;;;18.50;35.50;;;;;;4956927;28;20430;-88
2023/01/23 10:46:37;;;;;;;2.57;2.40;;;18.50;35.50;;;;;;4957614;28;20228;-87
2023/01/23 10:49:03;;;;;;;2.57;2.47;;;18.50;35.50;;;;;;4947930;28;20877;-89
2023/01/23 10:51:43;;;;;;;2.57;2.43;;;18.50;35.50;;;;;;4953763;28;21005;-87
2023/01/23 10:54:17;;;;;;;2.93;2.73;;;18.50;35.50;;;;;;4955698;28;20227;-86
2023/01/23 10:56:58;;;;;;;2.43;2.33;;;18.50;35.50;;;;;;4950152;28;20535;-86
2023/01/23 10:59:38;;;;;;;2.70;2.60;;;18.50;35.50;;;;;;4951017;28;20549;-85
2023/01/23 11:02:12;;;;;;;2.63;2.43;;;18.50;35.50;;;;;;4934956;28;20471;-86
2023/01/23 11:04:40;;;;;;;2.50;2.30;;;18.50;35.50;;;;;;4935027;28;20537;-86
2023/01/23 11:07:13;;;;;;;2.40;2.20;;;18.50;35.50;;;;;;4944422;28;20477;-86
2023/01/23 11:10:10;;;;;;;2.30;2.20;;;18.50;35.50;;;;;;4954951;28;20444;-86
2023/01/23 11:12:48;;;;;;;2.40;2.30;;;18.50;35.40;;;;;;4932219;28;21003;-86
2023/01/23 11:15:19;;;;;;;2.73;2.63;;;18.50;35.40;;;;;;4941160;28;20462;-86
2023/01/23 11:17:45;;;;;;;2.70;2.50;;;18.50;35.50;;;;;;4948266;28;20441;-86
2023/01/23 11:20:32;;;;;;;3.60;2.27;;;18.50;35.50;;;;;;4932587;28;20432;-85
2023/01/23 11:23:05;;;;;;;2.90;2.80;;;18.50;35.50;;;;;;4944304;28;20485;-86
2023/01/23 11:25:39;;;;;;;2.53;2.43;;;18.50;35.50;;;;;;4935485;28;20545;-87
2023/01/23 11:28:26;;;;;;;2.67;2.57;;;18.50;35.50;;;;;;4955488;28;20428;-87
2023/01/23 11:31:14;;;;;;;2.27;2.17;;;18.50;35.50;;;;;;4949486;28;20442;-87
2023/01/23 11:34:10;;;;;;;2.70;2.50;;;18.50;35.50;;;;;;4945508;28;20890;-86
2023/01/23 11:37:06;;;;;;;2.57;2.47;;;18.50;35.50;;;;;;4938550;28;20444;-87
2023/01/23 11:39:41;;;;;;;2.40;2.30;;;18.50;35.50;;;;;;4951123;28;20452;-87
2023/01/23 11:42:14;;;;;;;2.30;2.20;;;18.50;35.60;;;;;;4959735;28;20433;-86
2023/01/23 11:44:41;;;;;;;2.33;2.23;;;18.50;35.60;;;;;;4957152;28;20457;-86
2023/01/23 11:47:44;;;;;;;2.30;2.20;;;18.50;35.50;;;;;;4962479;28;21004;-85
2023/01/23 11:50:27;;;;;;;1.97;1.87;;;18.50;35.50;;;;;;4926828;28;20467;-87
2023/01/23 11:53:32;;;;;;;2.20;2.10;;;18.50;35.60;;;;;;4958852;28;20429;-86
2023/01/23 11:56:28;;;;;;;2.30;2.20;;;18.50;35.60;;;;;;4961105;28;20509;-87
2023/01/23 11:59:18;;;;;;;2.40;2.30;;;18.50;35.60;;;;;;4941792;28;20425;-88
2023/01/23 12:02:11;;;;;;;2.63;2.50;;;18.50;35.60;;;;;;4956991;28;20870;-88
2023/01/23 12:04:45;;;;;;;2.83;2.73;;;18.50;35.60;;;;;;4961565;28;20445;-87
2023/01/23 12:07:25;;;;;;;2.27;2.17;;;18.50;35.60;;;;;;4964301;28;20436;-87
2023/01/23 12:10:09;;;;;;;2.80;2.60;;;18.50;35.70;;;;;;4947467;28;20426;-87
2023/01/23 12:13:01;;;;;;;2.10;2.00;;;18.50;35.70;;;;;;4948151;28;20432;-87
2023/01/23 12:15:38;;;;;;;2.70;2.60;;;18.50;35.70;;;;;;4955040;28;20479;-88
2023/01/23 12:18:31;;;;;;;2.03;1.93;;;18.50;35.70;;;;;;4963535;28;20436;-87
2023/01/23 12:21:17;;;;;;;2.30;2.20;;;18.50;35.70;;;;;;4943932;28;20450;-86
2023/01/23 12:23:58;;;;;;;3.00;2.90;;;18.50;35.70;;;;;;4951679;28;20479;-86
2023/01/23 12:26:27;;;;;;;2.67;2.50;;;18.50;35.70;;;;;;4946261;28;20448;-87
2023/01/23 12:29:11;;;;;;;2.93;2.80;;;18.50;35.80;;;;;;4940043;28;20473;-87
2023/01/23 12:32:10;;;;;;;2.10;2.00;;;18.50;35.80;;;;;;4931439;28;20454;-86
2023/01/23 12:34:51;;;;;;;2.50;2.40;;;18.50;35.80;;;;;;4949446;28;20989;-85
2023/01/23 12:37:39;;;;;;;2.77;2.60;;;18.50;35.70;;;;;;4926413;28;20887;-87
2023/01/23 12:40:25;;;;;;;2.07;1.97;;;18.50;35.70;;;;;;4949205;28;20442;-86
2023/01/23 12:43:15;;;;;;;2.97;2.77;;;18.50;35.80;;;;;;4955064;28;20451;-86
2023/01/23 12:45:47;;;;;;;2.43;2.33;;;18.50;35.80;;;;;;4945804;28;20469;-86
2023/01/23 12:48:31;;;;;;;2.50;2.40;;;18.50;35.80;;;;;;4958556;28;20521;-87
2023/01/23 12:51:03;;;;;;;2.93;2.73;;;18.50;35.80;;;;;;4951693;28;20459;-87
2023/01/23 12:53:36;;;;;;;2.63;2.43;;;18.50;35.80;;;;;;4945932;28;20652;-86
2023/01/23 12:56:07;;;;;;;2.40;2.30;;;18.50;35.80;;;;;;4951789;28;20450;-88
2023/01/23 12:58:41;;;;;;;2.33;2.23;;;18.50;35.80;;;;;;4954780;28;20901;-86
2023/01/23 13:01:27;;;;;;;2.57;2.47;;;18.50;35.80;;;;;;4944628;28;20483;-86
2023/01/23 13:04:07;;;;;;;2.13;2.03;;;18.50;35.80;;;;;;4955368;28;20447;-86
2023/01/23 13:06:51;;;;;;;2.40;2.30;;;18.50;35.80;;;;;;4945662;28;20508;-86
2023/01/23 13:09:35;;;;;;;2.53;2.43;;;18.50;35.80;;;;;;4958832;28;20796;-86